Time;durP1;ratioP1;P1;durP2;ratioP2;P2;SDS_P1;SDS_P2;PMS_P1;PMS_P2;Temp;Humidity;BMP_temperature;BMP_pressure;BME280_temperature;BME280_humidity;BME280_pressure;Samples;Min_cycle;Max_cycle;Signal;HPM_P1;HPM_P2
2023/04/11 00:02:03;;;;;;;0.70;0.70;;;2.60;99.90;;;;;;5034808;28;20666;-75
2023/04/11 00:04:29;;;;;;;0.80;0.80;;;2.50;99.90;;;;;;5014272;28;20234;-74
2023/04/11 00:06:55;;;;;;;0.70;0.70;;;2.50;99.90;;;;;;5015994;28;20195;-74
2023/04/11 00:09:21;;;;;;;0.77;0.77;;;2.50;99.90;;;;;;5014337;28;20667;-74
2023/04/11 00:11:47;;;;;;;0.60;0.60;;;2.40;99.90;;;;;;5022155;28;20210;-75
2023/04/11 00:14:14;;;;;;;0.60;0.60;;;2.40;99.90;;;;;;5035900;28;20186;-74
2023/04/11 00:16:40;;;;;;;0.65;0.65;;;2.40;99.90;;;;;;5035733;28;20201;-74
2023/04/11 00:19:08;;;;;;;0.80;0.80;;;2.40;99.90;;;;;;5017839;28;20198;-75
2023/04/11 00:21:38;;;;;;;0.80;0.80;;;2.40;99.90;;;;;;5035200;28;20190;-74
2023/04/11 00:24:06;;;;;;;0.70;0.70;;;2.40;99.90;;;;;;5017560;28;20202;-74
2023/04/11 00:26:32;;;;;;;0.70;0.70;;;2.40;99.90;;;;;;5017403;28;20226;-75
2023/04/11 00:28:58;;;;;;;0.70;0.70;;;2.40;99.90;;;;;;5035195;28;20238;-75
2023/04/11 00:31:23;;;;;;;0.80;0.80;;;2.40;99.90;;;;;;5033640;28;20573;-75
2023/04/11 00:33:49;;;;;;;0.70;0.70;;;2.40;99.90;;;;;;5035020;28;20234;-74
2023/04/11 00:36:15;;;;;;;0.70;0.70;;;2.40;99.90;;;;;;5035153;28;20192;-74
2023/04/11 00:38:41;;;;;;;1.23;1.13;;;2.40;99.90;;;;;;5034955;28;20197;-74
2023/04/11 00:41:07;;;;;;;0.70;0.70;;;2.50;99.90;;;;;;5034846;28;20539;-75
2023/04/11 00:43:33;;;;;;;0.80;0.80;;;2.50;99.90;;;;;;5034187;28;20703;-74
2023/04/11 00:45:59;;;;;;;1.40;1.05;;;2.40;99.90;;;;;;5035059;28;20202;-74
2023/04/11 00:48:27;;;;;;;0.70;0.70;;;2.40;99.90;;;;;;5016903;28;20673;-74
2023/04/11 00:50:53;;;;;;;0.60;0.60;;;2.40;99.90;;;;;;5034928;28;20186;-74
2023/04/11 00:53:20;;;;;;;0.70;0.70;;;2.50;99.90;;;;;;5034507;28;20197;-74
2023/04/11 00:55:45;;;;;;;1.13;1.02;;;2.40;99.90;;;;;;5016719;28;20210;-74
2023/04/11 00:58:12;;;;;;;0.68;0.68;;;2.40;99.90;;;;;;5034738;28;20699;-74
2023/04/11 01:00:38;;;;;;;0.70;0.70;;;2.50;99.90;;;;;;5016648;28;20795;-74
2023/04/11 01:03:04;;;;;;;0.60;0.60;;;2.40;99.90;;;;;;5030089;28;20422;-75
2023/04/11 01:05:32;;;;;;;0.70;0.70;;;2.40;99.90;;;;;;5015935;28;20674;-75
2023/04/11 01:07:59;;;;;;;0.65;0.65;;;2.40;99.90;;;;;;5020539;28;20600;-75
2023/04/11 01:10:29;;;;;;;0.70;0.70;;;2.30;99.90;;;;;;5033631;28;20206;-75
2023/04/11 01:12:57;;;;;;;0.70;0.70;;;2.20;99.90;;;;;;5034465;28;20277;-74
2023/04/11 01:15:24;;;;;;;0.63;0.63;;;2.30;99.90;;;;;;5034000;28;20245;-75
2023/04/11 01:17:51;;;;;;;0.70;0.70;;;2.20;99.90;;;;;;5016681;28;20199;-75
2023/04/11 01:20:18;;;;;;;0.70;0.70;;;2.20;99.90;;;;;;5034318;28;20684;-75
2023/04/11 01:22:46;;;;;;;0.50;0.50;;;2.20;99.90;;;;;;5034258;28;20190;-75
2023/04/11 01:25:13;;;;;;;0.60;0.60;;;2.20;99.90;;;;;;5033045;28;20281;-75
2023/04/11 01:27:41;;;;;;;0.70;0.70;;;2.10;99.90;;;;;;5033870;28;20201;-75
2023/04/11 01:30:07;;;;;;;0.75;0.75;;;2.10;99.90;;;;;;5034054;28;20232;-75
2023/04/11 01:32:34;;;;;;;0.63;0.63;;;2.10;99.90;;;;;;5033909;28;20581;-75
2023/04/11 01:35:02;;;;;;;0.70;0.70;;;2.10;99.90;;;;;;5033772;28;20206;-74
2023/04/11 01:37:27;;;;;;;0.70;0.70;;;2.10;99.90;;;;;;5033786;28;20645;-75
2023/04/11 01:39:53;;;;;;;0.73;0.73;;;2.10;99.90;;;;;;5033928;28;20192;-75
2023/04/11 01:42:21;;;;;;;0.60;0.60;;;2.00;99.90;;;;;;5033802;28;20217;-75
2023/04/11 01:44:49;;;;;;;0.60;0.60;;;2.00;99.90;;;;;;5016225;28;20194;-75
2023/04/11 01:47:15;;;;;;;0.70;0.70;;;2.00;99.90;;;;;;5033929;28;20197;-75
2023/04/11 01:49:41;;;;;;;0.60;0.60;;;1.90;99.90;;;;;;5033557;28;20220;-75
2023/04/11 01:52:07;;;;;;;0.70;0.70;;;1.90;99.90;;;;;;5033584;28;20602;-74
2023/04/11 01:54:33;;;;;;;0.70;0.70;;;1.90;99.90;;;;;;5033440;28;20194;-75
2023/04/11 01:57:00;;;;;;;0.70;0.70;;;1.90;99.90;;;;;;5015926;28;20205;-75
2023/04/11 01:59:26;;;;;;;0.68;0.68;;;1.80;99.90;;;;;;5033408;28;20235;-75
2023/04/11 02:01:51;;;;;;;0.70;0.70;;;1.70;99.90;;;;;;5032675;28;20206;-74
2023/04/11 02:04:17;;;;;;;0.70;0.70;;;1.60;99.90;;;;;;5015333;28;20206;-75
2023/04/11 02:06:43;;;;;;;0.80;0.80;;;1.60;99.90;;;;;;5015162;28;20216;-74
2023/04/11 02:09:09;;;;;;;0.70;0.70;;;1.60;99.90;;;;;;5033360;28;20260;-74
2023/04/11 02:11:35;;;;;;;0.73;0.73;;;1.60;99.90;;;;;;5015571;28;20297;-75
2023/04/11 02:14:02;;;;;;;1.75;1.45;;;1.60;99.90;;;;;;5033476;28;20377;-74
2023/04/11 02:16:28;;;;;;;0.70;0.70;;;1.60;99.90;;;;;;5015380;28;20677;-75
2023/04/11 02:18:55;;;;;;;0.70;0.70;;;1.60;99.90;;;;;;5033419;28;20187;-73
2023/04/11 02:21:21;;;;;;;0.70;0.70;;;1.60;99.90;;;;;;5033026;28;20247;-73
2023/04/11 02:23:47;;;;;;;0.47;0.47;;;1.70;99.90;;;;;;5033202;28;20222;-75
2023/04/11 02:26:13;;;;;;;0.80;0.80;;;1.80;99.90;;;;;;5033034;28;20230;-74
2023/04/11 02:28:38;;;;;;;0.70;0.70;;;1.80;99.90;;;;;;5015242;28;20237;-75
2023/04/11 02:31:04;;;;;;;0.60;0.60;;;1.90;99.90;;;;;;5015221;28;20202;-74
2023/04/11 02:33:31;;;;;;;0.60;0.60;;;1.90;99.90;;;;;;5032455;28;20233;-75
2023/04/11 02:35:57;;;;;;;0.70;0.70;;;2.00;99.90;;;;;;5033030;28;20201;-75
2023/04/11 02:38:23;;;;;;;0.70;0.70;;;2.00;99.90;;;;;;5032910;28;20190;-74
2023/04/11 02:40:49;;;;;;;0.80;0.80;;;2.10;99.90;;;;;;5032934;28;20186;-76
2023/04/11 02:43:15;;;;;;;1.23;1.02;;;2.10;99.90;;;;;;5033146;28;20692;-78
2023/04/11 02:45:41;;;;;;;0.60;0.60;;;2.00;99.90;;;;;;5015221;28;20198;-77
2023/04/11 02:48:07;;;;;;;0.80;0.80;;;1.90;99.90;;;;;;5033266;28;20213;-75
2023/04/11 02:50:33;;;;;;;0.70;0.70;;;1.90;99.90;;;;;;5015073;28;20201;-78
2023/04/11 02:52:58;;;;;;;0.75;0.75;;;1.80;99.90;;;;;;5032945;28;20692;-74
2023/04/11 02:55:25;;;;;;;0.70;0.70;;;1.80;99.90;;;;;;5032557;28;20202;-75
2023/04/11 02:57:51;;;;;;;1.00;1.00;;;1.80;99.90;;;;;;5032906;28;20186;-73
2023/04/11 03:00:20;;;;;;;0.65;0.65;;;1.70;99.90;;;;;;5032512;28;20741;-75
2023/04/11 03:02:47;;;;;;;0.77;0.77;;;1.70;99.90;;;;;;5031401;28;20228;-74
2023/04/11 03:05:14;;;;;;;0.60;0.60;;;1.80;99.90;;;;;;5032568;28;20202;-75
2023/04/11 03:07:40;;;;;;;0.60;0.60;;;1.90;99.90;;;;;;5032633;28;20273;-74
2023/04/11 03:10:06;;;;;;;0.70;0.70;;;1.90;99.90;;;;;;5032862;28;20225;-75
2023/04/11 03:12:32;;;;;;;0.70;0.70;;;2.00;99.90;;;;;;5030760;28;20198;-75
2023/04/11 03:14:58;;;;;;;0.60;0.60;;;2.00;99.90;;;;;;5032738;28;20288;-73
2023/04/11 03:17:23;;;;;;;0.60;0.60;;;2.00;99.90;;;;;;5031282;28;20202;-74
2023/04/11 03:19:49;;;;;;;1.02;1.02;;;2.10;99.90;;;;;;5034374;28;20201;-76
2023/04/11 03:22:16;;;;;;;0.70;0.70;;;2.20;99.90;;;;;;5036317;28;20201;-73
2023/04/11 03:24:42;;;;;;;0.68;0.68;;;2.20;99.90;;;;;;5036329;28;20645;-74
2023/04/11 03:27:08;;;;;;;0.60;0.60;;;2.20;99.90;;;;;;5018629;28;20202;-75
2023/04/11 03:29:33;;;;;;;0.70;0.70;;;2.10;99.90;;;;;;5036187;28;20206;-73
2023/04/11 03:31:59;;;;;;;0.60;0.60;;;2.10;99.90;;;;;;5036318;28;20194;-73
2023/04/11 03:34:25;;;;;;;0.70;0.70;;;2.10;99.90;;;;;;5018297;28;20710;-73
2023/04/11 03:36:51;;;;;;;0.70;0.70;;;2.00;99.90;;;;;;5036452;28;20555;-74
2023/04/11 03:39:18;;;;;;;0.68;0.68;;;2.00;99.90;;;;;;5018455;28;20204;-74
2023/04/11 03:41:44;;;;;;;0.55;0.55;;;2.10;99.90;;;;;;5036442;28;20190;-74
2023/04/11 03:44:10;;;;;;;0.63;0.63;;;2.10;99.90;;;;;;5036079;28;20202;-74
2023/04/11 03:46:36;;;;;;;0.70;0.70;;;2.00;99.90;;;;;;5035989;28;20274;-75
2023/04/11 03:49:01;;;;;;;0.80;0.80;;;1.90;99.90;;;;;;5035921;28;20194;-75
2023/04/11 03:51:27;;;;;;;0.88;0.88;;;1.90;99.90;;;;;;5035295;28;20198;-75
2023/04/11 03:53:53;;;;;;;0.57;0.57;;;1.90;99.90;;;;;;5035993;28;20206;-75
2023/04/11 03:56:19;;;;;;;0.60;0.60;;;2.00;99.90;;;;;;5017747;28;21644;-74
2023/04/11 03:58:45;;;;;;;0.80;0.80;;;2.00;99.90;;;;;;5018107;28;20216;-75
2023/04/11 04:01:11;;;;;;;0.70;0.70;;;2.00;99.90;;;;;;5018070;28;20637;-75
2023/04/11 04:03:36;;;;;;;0.60;0.60;;;1.90;99.90;;;;;;5034853;28;20612;-74
2023/04/11 04:06:02;;;;;;;0.68;0.68;;;1.90;99.90;;;;;;5035662;28;20259;-74
2023/04/11 04:08:28;;;;;;;0.63;0.63;;;2.00;99.90;;;;;;5034100;28;20669;-75
2023/04/11 04:10:54;;;;;;;0.70;0.70;;;1.90;99.90;;;;;;5035556;28;20209;-75
2023/04/11 04:13:19;;;;;;;0.60;0.60;;;1.90;99.90;;;;;;5035549;28;20560;-74
2023/04/11 04:15:45;;;;;;;0.70;0.70;;;1.90;99.90;;;;;;5035338;28;20198;-75
2023/04/11 04:18:11;;;;;;;0.70;0.70;;;2.00;99.90;;;;;;5034044;28;20201;-74
2023/04/11 04:20:37;;;;;;;0.60;0.60;;;2.00;99.90;;;;;;5017612;28;20271;-75
2023/04/11 04:23:03;;;;;;;0.60;0.60;;;2.10;99.90;;;;;;5035562;28;20187;-74
2023/04/11 04:25:29;;;;;;;0.60;0.60;;;2.10;99.90;;;;;;5035106;28;20543;-74
2023/04/11 04:27:56;;;;;;;0.70;0.70;;;2.20;99.90;;;;;;5017025;28;20289;-74
2023/04/11 04:30:22;;;;;;;0.57;0.57;;;2.30;99.90;;;;;;5034408;28;20194;-74
2023/04/11 04:32:53;;;;;;;0.70;0.70;;;2.30;99.90;;;;;;5035477;28;20265;-74
2023/04/11 04:35:19;;;;;;;0.77;0.77;;;2.20;99.90;;;;;;5016601;28;20233;-74
2023/04/11 04:37:45;;;;;;;0.70;0.70;;;2.30;99.90;;;;;;5035115;28;20198;-74
2023/04/11 04:40:12;;;;;;;2.10;1.65;;;2.40;99.90;;;;;;5017321;28;20608;-74
2023/04/11 04:42:42;;;;;;;0.60;0.60;;;2.50;99.90;;;;;;5017117;28;20202;-74
2023/04/11 04:45:09;;;;;;;0.93;0.93;;;2.60;99.90;;;;;;5017331;28;20684;-74
2023/04/11 04:47:37;;;;;;;0.60;0.60;;;2.70;99.90;;;;;;5016947;28;20212;-74
2023/04/11 04:50:03;;;;;;;0.65;0.65;;;2.70;99.90;;;;;;5017118;28;20248;-73
2023/04/11 04:52:29;;;;;;;0.70;0.70;;;2.90;99.90;;;;;;5034302;28;20194;-74
2023/04/11 04:54:59;;;;;;;0.70;0.70;;;3.00;99.90;;;;;;5034850;28;20289;-73
2023/04/11 04:57:30;;;;;;;0.70;0.70;;;3.10;99.90;;;;;;5034400;28;20201;-73
2023/04/11 04:59:57;;;;;;;0.50;0.50;;;3.30;99.90;;;;;;5034697;28;20190;-74
2023/04/11 05:02:24;;;;;;;0.80;0.80;;;3.40;99.90;;;;;;5034215;28;20194;-74
2023/04/11 05:04:50;;;;;;;1.80;1.25;;;3.40;99.90;;;;;;5034339;28;20205;-74
2023/04/11 05:07:17;;;;;;;0.50;0.50;;;3.50;99.90;;;;;;5016781;28;20206;-74
2023/04/11 05:09:42;;;;;;;0.80;0.80;;;3.70;99.90;;;;;;5033011;28;20194;-74
2023/04/11 05:12:08;;;;;;;0.70;0.70;;;3.70;99.90;;;;;;5016274;28;20202;-74
2023/04/11 05:14:34;;;;;;;0.70;0.70;;;3.80;99.90;;;;;;5015790;28;20197;-74
2023/04/11 05:17:00;;;;;;;0.70;0.70;;;3.80;99.90;;;;;;5034480;28;20202;-74
2023/04/11 05:19:26;;;;;;;0.60;0.60;;;3.90;99.90;;;;;;5034196;28;20194;-74
2023/04/11 05:21:52;;;;;;;2.47;1.98;;;4.00;99.90;;;;;;5034287;28;20217;-74
2023/04/11 05:24:18;;;;;;;0.70;0.70;;;4.20;99.90;;;;;;5016388;28;20194;-74
2023/04/11 05:26:44;;;;;;;0.90;0.75;;;4.40;99.90;;;;;;5034245;28;20677;-73
2023/04/11 05:29:10;;;;;;;0.70;0.70;;;4.50;99.90;;;;;;5016392;28;20206;-73
2023/04/11 05:31:39;;;;;;;0.70;0.70;;;4.50;99.90;;;;;;5016269;28;20569;-73
2023/04/11 05:34:05;;;;;;;0.60;0.60;;;4.60;99.90;;;;;;5016188;28;20206;-73
2023/04/11 05:36:31;;;;;;;1.65;1.33;;;4.60;99.90;;;;;;5033705;28;20202;-72
2023/04/11 05:38:58;;;;;;;0.60;0.60;;;4.50;99.90;;;;;;5016686;28;20254;-73
2023/04/11 05:41:24;;;;;;;0.70;0.70;;;4.50;99.90;;;;;;5033165;28;20222;-72
2023/04/11 05:43:50;;;;;;;0.65;0.65;;;4.50;99.90;;;;;;5015577;28;20190;-73
2023/04/11 05:46:16;;;;;;;2.05;1.23;;;4.50;99.90;;;;;;5033980;28;20194;-73
2023/04/11 05:48:42;;;;;;;0.73;0.73;;;4.40;99.90;;;;;;5033295;28;20190;-72
2023/04/11 05:51:08;;;;;;;0.80;0.80;;;4.40;99.90;;;;;;5033225;28;20285;-72
2023/04/11 05:53:34;;;;;;;0.70;0.70;;;4.40;99.90;;;;;;5035023;28;20661;-73
2023/04/11 05:56:00;;;;;;;0.70;0.70;;;4.50;99.90;;;;;;5015911;28;20210;-72
2023/04/11 05:58:27;;;;;;;0.60;0.60;;;4.50;99.90;;;;;;5033414;28;20562;-72
2023/04/11 06:00:53;;;;;;;0.90;0.90;;;4.50;99.90;;;;;;5033313;28;20194;-72
2023/04/11 06:03:19;;;;;;;0.80;0.80;;;4.50;99.90;;;;;;5032808;28;20600;-73
2023/04/11 06:05:48;;;;;;;0.70;0.70;;;4.60;99.90;;;;;;5014478;28;20280;-73
2023/04/11 06:08:13;;;;;;;0.70;0.70;;;4.60;99.90;;;;;;5013774;28;20199;-72
2023/04/11 06:10:42;;;;;;;0.70;0.70;;;4.70;99.90;;;;;;5016551;28;20619;-73
2023/04/11 06:13:08;;;;;;;0.95;0.90;;;4.70;99.90;;;;;;5033506;28;20684;-72
2023/04/11 06:15:33;;;;;;;0.60;0.60;;;4.70;99.90;;;;;;5033360;28;20202;-72
2023/04/11 06:17:59;;;;;;;0.82;0.82;;;4.80;99.90;;;;;;5033315;28;20252;-72
2023/04/11 06:20:25;;;;;;;0.70;0.70;;;4.80;99.90;;;;;;5033107;28;20190;-72
2023/04/11 06:22:51;;;;;;;0.63;0.63;;;4.90;99.90;;;;;;5033281;28;20186;-72
2023/04/11 06:25:20;;;;;;;0.60;0.60;;;4.90;99.90;;;;;;5033074;28;20260;-73
2023/04/11 06:27:47;;;;;;;0.70;0.70;;;5.00;99.90;;;;;;5033128;28;20223;-74
2023/04/11 06:30:13;;;;;;;0.70;0.70;;;5.00;99.90;;;;;;5033051;28;20285;-74
2023/04/11 06:32:39;;;;;;;0.73;0.73;;;5.00;99.90;;;;;;5014851;28;20729;-74
2023/04/11 06:35:05;;;;;;;0.60;0.60;;;5.00;99.90;;;;;;5032637;28;20299;-74
2023/04/11 06:37:31;;;;;;;0.70;0.70;;;5.10;99.90;;;;;;5015026;28;20669;-74
2023/04/11 06:39:59;;;;;;;0.80;0.80;;;5.10;99.90;;;;;;5033237;28;20256;-74
2023/04/11 06:42:25;;;;;;;0.63;0.63;;;5.10;99.90;;;;;;5032859;28;20190;-74
2023/04/11 06:44:51;;;;;;;0.70;0.70;;;5.10;99.90;;;;;;5015051;28;20198;-74
2023/04/11 06:47:16;;;;;;;0.70;0.70;;;5.10;99.90;;;;;;5015156;28;20577;-74
2023/04/11 06:49:42;;;;;;;0.70;0.70;;;5.10;99.90;;;;;;5015104;28;20289;-74
2023/04/11 06:52:08;;;;;;;0.70;0.70;;;5.10;99.90;;;;;;5032734;28;20297;-74
2023/04/11 06:54:33;;;;;;;0.70;0.70;;;5.10;99.90;;;;;;5017916;28;20204;-74
2023/04/11 06:57:01;;;;;;;0.70;0.70;;;5.20;99.90;;;;;;5036796;28;20186;-74
2023/04/11 06:59:26;;;;;;;0.70;0.70;;;5.20;99.90;;;;;;5035395;28;20267;-74
2023/04/11 07:01:52;;;;;;;0.70;0.70;;;5.20;99.90;;;;;;5018965;28;20643;-74
2023/04/11 07:04:18;;;;;;;0.60;0.60;;;5.30;99.90;;;;;;5030861;28;20234;-74
2023/04/11 07:06:46;;;;;;;0.70;0.70;;;5.40;99.90;;;;;;5016721;28;20572;-74
2023/04/11 07:09:12;;;;;;;0.65;0.65;;;5.50;99.90;;;;;;5015702;28;20293;-74
2023/04/11 07:11:41;;;;;;;0.90;0.90;;;5.70;99.90;;;;;;5016517;28;20381;-74
2023/04/11 07:14:06;;;;;;;0.80;0.80;;;5.80;99.90;;;;;;5016321;28;20197;-75
2023/04/11 07:16:32;;;;;;;0.70;0.70;;;6.10;99.90;;;;;;5015384;28;20298;-74
2023/04/11 07:18:58;;;;;;;1.40;1.30;;;6.30;99.90;;;;;;5015717;28;20194;-74
2023/04/11 07:21:27;;;;;;;0.80;0.80;;;6.40;99.90;;;;;;5016503;28;20191;-72
2023/04/11 07:23:53;;;;;;;2.10;1.83;;;6.70;99.90;;;;;;5015398;28;20201;-73
2023/04/11 07:26:19;;;;;;;0.60;0.60;;;6.80;99.90;;;;;;5016548;28;20195;-73
2023/04/11 07:28:46;;;;;;;0.70;0.70;;;6.90;99.90;;;;;;5016511;28;20282;-73
2023/04/11 07:31:12;;;;;;;0.70;0.70;;;7.10;99.90;;;;;;5016481;28;20253;-73
2023/04/11 07:33:41;;;;;;;0.80;0.80;;;7.20;99.90;;;;;;5014998;28;20625;-73
2023/04/11 07:36:07;;;;;;;2.08;1.80;;;7.40;99.90;;;;;;5016388;28;20682;-73
2023/04/11 07:38:33;;;;;;;0.82;0.82;;;7.60;99.90;;;;;;5014870;28;20202;-73
2023/04/11 07:41:01;;;;;;;0.82;0.82;;;7.70;99.90;;;;;;5016322;28;20199;-73
2023/04/11 07:43:28;;;;;;;0.63;0.63;;;7.60;99.90;;;;;;4996550;28;20215;-73
2023/04/11 07:45:55;;;;;;;0.75;0.75;;;7.60;99.90;;;;;;5002903;28;20671;-73
2023/04/11 07:48:21;;;;;;;0.60;0.60;;;7.60;99.90;;;;;;5016025;28;20564;-74
2023/04/11 07:50:47;;;;;;;0.80;0.80;;;7.70;99.90;;;;;;5016200;28;20690;-72
2023/04/11 07:53:13;;;;;;;0.70;0.70;;;7.70;99.90;;;;;;5016098;28;20267;-73
2023/04/11 07:55:40;;;;;;;1.20;1.05;;;7.90;99.90;;;;;;5015143;28;20211;-73
2023/04/11 07:58:06;;;;;;;0.70;0.70;;;8.00;99.90;;;;;;5016068;28;20203;-73
2023/04/11 08:00:32;;;;;;;0.60;0.60;;;8.10;99.90;;;;;;5030978;28;20202;-73
2023/04/11 08:03:05;;;;;;;0.77;0.77;;;8.20;99.90;;;;;;5023090;28;20308;-73
2023/04/11 08:05:32;;;;;;;0.70;0.70;;;8.30;99.90;;;;;;5034270;28;20280;-73
2023/04/11 08:07:58;;;;;;;0.60;0.60;;;8.30;99.90;;;;;;5035643;28;20186;-74
2023/04/11 08:10:24;;;;;;;0.60;0.60;;;8.10;99.90;;;;;;5035436;28;20191;-73
2023/04/11 08:12:50;;;;;;;0.60;0.60;;;8.10;99.90;;;;;;5017733;28;20198;-73
2023/04/11 08:15:17;;;;;;;1.20;1.10;;;7.90;99.90;;;;;;5035352;28;20221;-74
2023/04/11 08:17:44;;;;;;;0.90;0.90;;;7.90;99.90;;;;;;5035330;28;20199;-73
2023/04/11 08:20:11;;;;;;;0.80;0.80;;;7.80;99.90;;;;;;5035411;28;20713;-73
2023/04/11 08:22:38;;;;;;;0.73;0.73;;;7.60;99.90;;;;;;5017015;28;20207;-73
2023/04/11 08:25:06;;;;;;;0.65;0.65;;;7.70;99.90;;;;;;5017642;28;20248;-73
2023/04/11 08:27:32;;;;;;;0.93;0.93;;;7.60;99.90;;;;;;5035129;28;20186;-74
2023/04/11 08:29:58;;;;;;;0.90;0.90;;;7.70;99.90;;;;;;5035243;28;20243;-73
2023/04/11 08:32:24;;;;;;;3.22;1.65;;;7.60;99.90;;;;;;5034866;28;20217;-74
2023/04/11 08:34:50;;;;;;;1.23;1.13;;;7.50;99.90;;;;;;5017347;28;20672;-74
2023/04/11 08:37:15;;;;;;;0.95;0.95;;;7.40;99.90;;;;;;5032968;28;20288;-73
2023/04/11 08:39:41;;;;;;;1.35;1.10;;;7.50;99.90;;;;;;5035005;28;20198;-74
2023/04/11 08:42:20;;;;;;;0.70;0.70;;;7.50;99.90;;;;;;5035033;28;20205;-73
2023/04/11 08:44:52;;;;;;;0.60;0.60;;;7.50;99.90;;;;;;5017158;28;20280;-73
2023/04/11 08:47:18;;;;;;;0.60;0.60;;;7.60;99.90;;;;;;5034804;28;20569;-74
2023/04/11 08:49:44;;;;;;;0.60;0.60;;;7.60;99.90;;;;;;5034854;28;20198;-73
2023/04/11 08:52:09;;;;;;;0.77;0.77;;;7.60;99.90;;;;;;5034766;28;20209;-73
2023/04/11 08:54:35;;;;;;;1.08;1.05;;;7.60;99.90;;;;;;5034568;28;20236;-73
2023/04/11 08:57:01;;;;;;;0.50;0.50;;;7.60;99.90;;;;;;5034701;28;20244;-74
2023/04/11 08:59:26;;;;;;;0.60;0.60;;;7.60;99.90;;;;;;5034298;28;20190;-73
2023/04/11 09:02:07;;;;;;;0.70;0.70;;;7.60;99.90;;;;;;5034440;28;20194;-73
2023/04/11 09:04:40;;;;;;;0.70;0.70;;;7.70;99.90;;;;;;5034480;28;20268;-74
2023/04/11 09:07:06;;;;;;;0.70;0.70;;;7.70;99.90;;;;;;5034612;28;20602;-74
2023/04/11 09:09:35;;;;;;;0.68;0.68;;;7.80;99.90;;;;;;5034570;28;20190;-73
2023/04/11 09:12:02;;;;;;;0.80;0.80;;;7.90;99.90;;;;;;5034592;28;20664;-73
2023/04/11 09:14:28;;;;;;;0.60;0.60;;;8.10;99.90;;;;;;5034310;28;20265;-73
2023/04/11 09:16:59;;;;;;;0.60;0.60;;;8.30;99.90;;;;;;5034283;28;20214;-73
2023/04/11 09:19:27;;;;;;;1.20;0.80;;;8.60;99.90;;;;;;5033893;28;20680;-73
2023/04/11 09:21:55;;;;;;;0.60;0.60;;;8.70;99.90;;;;;;5016595;28;20202;-72
2023/04/11 09:24:21;;;;;;;0.70;0.70;;;8.80;99.90;;;;;;5034057;28;20187;-73
2023/04/11 09:26:47;;;;;;;0.65;0.65;;;9.00;99.90;;;;;;5034182;28;20198;-72
2023/04/11 09:29:37;;;;;;;0.55;0.55;;;9.10;99.90;;;;;;5015669;28;20202;-74
2023/04/11 09:32:02;;;;;;;0.70;0.70;;;9.20;99.90;;;;;;5033963;28;20700;-73
2023/04/11 09:34:28;;;;;;;0.70;0.70;;;9.20;99.90;;;;;;5015468;28;20241;-73
2023/04/11 09:36:55;;;;;;;0.60;0.60;;;9.00;99.90;;;;;;5033515;28;20218;-73
2023/04/11 09:39:21;;;;;;;0.60;0.60;;;9.00;99.90;;;;;;5033633;28;20190;-73
2023/04/11 09:41:47;;;;;;;0.70;0.70;;;8.90;99.90;;;;;;5033870;28;20526;-74
2023/04/11 09:44:13;;;;;;;0.60;0.60;;;8.90;99.90;;;;;;5016113;28;20660;-73
2023/04/11 09:46:58;;;;;;;0.60;0.60;;;8.90;99.90;;;;;;5033449;28;20272;-74
2023/04/11 09:49:24;;;;;;;0.60;0.60;;;8.90;99.90;;;;;;5033554;28;20201;-72
2023/04/11 09:51:54;;;;;;;0.60;0.60;;;8.90;99.90;;;;;;5033623;28;20206;-73
2023/04/11 09:54:25;;;;;;;0.68;0.68;;;8.80;99.90;;;;;;5015478;28;20194;-73
2023/04/11 09:56:51;;;;;;;0.68;0.68;;;8.90;99.90;;;;;;5033544;28;20202;-73
2023/04/11 09:59:19;;;;;;;1.20;0.93;;;9.20;99.90;;;;;;5015601;28;20240;-73
2023/04/11 10:01:45;;;;;;;0.52;0.52;;;9.60;99.90;;;;;;5033686;28;20203;-74
2023/04/11 10:04:11;;;;;;;1.15;0.77;;;9.90;99.90;;;;;;5026106;28;20706;-72
2023/04/11 10:07:56;;;;;;;;;;;;;;;;;;;;;
2023/04/11 10:10:24;;;;;;;0.80;0.80;;;10.40;99.90;;;;;;4934643;29;20205;-71
2023/04/11 10:12:50;;;;;;;0.50;0.50;;;10.50;99.90;;;;;;4934093;29;20204;-74
2023/04/11 10:15:17;;;;;;;1.50;1.38;;;10.40;99.90;;;;;;4993121;28;20309;-74
2023/04/11 10:18:05;;;;;;;0.90;0.90;;;10.30;99.90;;;;;;5033199;28;20244;-75
2023/04/11 10:20:30;;;;;;;1.52;0.75;;;10.30;99.90;;;;;;5033127;28;20187;-75
2023/04/11 10:23:00;;;;;;;0.60;0.60;;;10.30;99.90;;;;;;5033305;28;20190;-74
2023/04/11 10:25:27;;;;;;;0.57;0.57;;;10.30;99.90;;;;;;5015286;28;20731;-75
2023/04/11 10:28:00;;;;;;;1.02;1.00;;;10.40;99.90;;;;;;5014923;28;20289;-73
2023/04/11 10:30:57;;;;;;;1.67;0.98;;;10.70;99.90;;;;;;5032679;28;20631;-74
2023/04/11 10:33:25;;;;;;;1.02;0.98;;;11.30;99.90;;;;;;5018358;28;20214;-74
2023/04/11 10:36:08;;;;;;;0.52;0.52;;;12.00;99.90;;;;;;5015193;28;20214;-75
2023/04/11 10:38:41;;;;;;;0.80;0.80;;;12.80;99.90;;;;;;5032893;28;20556;-74
2023/04/11 10:41:26;;;;;;;0.60;0.60;;;13.50;99.90;;;;;;5015182;28;20229;-74
2023/04/11 10:44:11;;;;;;;0.50;0.50;;;14.00;99.90;;;;;;5031782;28;20248;-74
2023/04/11 10:46:53;;;;;;;1.00;0.75;;;13.50;99.90;;;;;;5015034;28;20202;-74
2023/04/11 10:49:36;;;;;;;0.55;0.55;;;12.70;99.90;;;;;;5032730;28;20194;-74
2023/04/11 10:52:21;;;;;;;0.47;0.47;;;13.00;99.90;;;;;;5032813;28;20564;-74
2023/04/11 10:54:48;;;;;;;0.65;0.60;;;13.10;99.90;;;;;;5015037;28;20190;-74
2023/04/11 10:57:14;;;;;;;0.60;0.60;;;13.30;99.90;;;;;;5032034;28;20244;-74
2023/04/11 10:59:43;;;;;;;0.75;0.75;;;13.20;99.90;;;;;;5032718;28;20623;-75
2023/04/11 11:02:09;;;;;;;2.75;0.82;;;13.30;99.90;;;;;;5032748;28;20198;-74
2023/04/11 11:04:36;;;;;;;0.40;0.40;;;13.50;99.90;;;;;;5011532;28;20195;-74
2023/04/11 11:07:04;;;;;;;1.35;0.98;;;13.20;99.90;;;;;;5013063;28;20233;-75
2023/04/11 11:09:30;;;;;;;0.57;0.57;;;13.20;99.90;;;;;;5012821;28;20685;-74
2023/04/11 11:12:13;;;;;;;0.70;0.70;;;12.90;99.90;;;;;;5013120;28;20540;-74
2023/04/11 11:14:41;;;;;;;0.40;0.40;;;13.10;99.90;;;;;;5012822;28;20210;-76
2023/04/11 11:17:07;;;;;;;0.50;0.50;;;13.50;99.90;;;;;;5013181;28;20565;-73
2023/04/11 11:19:34;;;;;;;1.00;1.00;;;13.80;99.90;;;;;;5012602;28;20284;-75
2023/04/11 11:22:02;;;;;;;1.42;0.82;;;13.90;99.90;;;;;;5012905;28;20198;-75
2023/04/11 11:24:29;;;;;;;0.65;0.60;;;14.00;99.90;;;;;;5011549;28;20201;-74
2023/04/11 11:26:56;;;;;;;0.50;0.50;;;14.00;99.90;;;;;;5020187;28;20236;-74
2023/04/11 11:29:36;;;;;;;2.78;0.70;;;14.00;99.90;;;;;;5032340;28;20198;-75
2023/04/11 11:32:02;;;;;;;0.40;0.40;;;13.70;99.90;;;;;;5014931;28;20237;-74
2023/04/11 11:34:33;;;;;;;0.75;0.75;;;13.40;99.90;;;;;;5014664;28;20221;-74
2023/04/11 11:37:03;;;;;;;0.50;0.50;;;13.40;99.90;;;;;;5014742;28;20218;-75
2023/04/11 11:39:30;;;;;;;0.68;0.68;;;13.30;99.90;;;;;;5032271;28;20305;-74
2023/04/11 11:41:56;;;;;;;0.65;0.65;;;13.30;99.90;;;;;;5017947;28;20228;-74
2023/04/11 11:44:29;;;;;;;0.98;0.88;;;13.20;99.90;;;;;;5036037;28;20190;-73
2023/04/11 11:47:01;;;;;;;1.17;0.98;;;13.00;99.90;;;;;;5035898;28;20554;-74
2023/04/11 11:49:41;;;;;;;0.40;0.40;;;12.80;99.90;;;;;;5034987;28;20194;-74
2023/04/11 11:52:07;;;;;;;1.98;1.08;;;12.60;99.90;;;;;;5018052;28;20205;-72
2023/04/11 11:54:45;;;;;;;1.95;0.60;;;12.50;99.90;;;;;;5035185;28;20194;-75
2023/04/11 11:57:11;;;;;;;1.52;0.80;;;12.40;99.90;;;;;;5017476;28;20293;-75
2023/04/11 11:59:36;;;;;;;0.73;0.73;;;12.50;99.90;;;;;;5035619;28;20237;-74
2023/04/11 12:02:03;;;;;;;0.80;0.80;;;12.50;99.90;;;;;;5035610;28;20190;-74
2023/04/11 12:04:31;;;;;;;2.40;1.45;;;12.30;99.90;;;;;;5011011;28;20215;-74
2023/04/11 12:07:06;;;;;;;0.40;0.40;;;12.30;99.90;;;;;;5011373;28;20678;-74
2023/04/11 12:09:32;;;;;;;0.60;0.60;;;12.20;99.90;;;;;;5011070;28;20662;-73
2023/04/11 12:11:58;;;;;;;1.83;1.38;;;12.20;99.90;;;;;;5011737;28;20207;-74
2023/04/11 12:14:23;;;;;;;0.50;0.50;;;12.20;99.90;;;;;;5011462;28;20239;-72
2023/04/11 12:16:53;;;;;;;1.02;0.93;;;12.20;99.90;;;;;;5011362;28;20284;-72
2023/04/11 12:19:18;;;;;;;0.57;0.57;;;12.20;99.90;;;;;;4996151;28;20581;-73
2023/04/11 12:21:44;;;;;;;0.93;0.93;;;12.10;99.90;;;;;;4996226;28;20191;-72
2023/04/11 12:24:10;;;;;;;0.68;0.68;;;12.00;99.90;;;;;;5011487;28;20334;-72
2023/04/11 12:26:36;;;;;;;0.50;0.50;;;12.00;99.90;;;;;;5015391;28;20202;-73
2023/04/11 12:29:06;;;;;;;0.93;0.93;;;11.90;99.90;;;;;;5015630;28;20191;-72
2023/04/11 12:31:31;;;;;;;0.57;0.57;;;11.70;99.90;;;;;;5015280;28;20234;-73
2023/04/11 12:33:57;;;;;;;0.50;0.50;;;11.70;99.90;;;;;;5014188;28;20218;-74
2023/04/11 12:36:26;;;;;;;0.68;0.68;;;11.70;99.90;;;;;;5030147;28;20698;-73
2023/04/11 12:38:52;;;;;;;1.42;0.82;;;11.60;99.90;;;;;;5015068;28;20646;-73
2023/04/11 12:41:17;;;;;;;0.50;0.50;;;11.50;99.90;;;;;;5030577;28;20249;-74
2023/04/11 12:43:43;;;;;;;0.43;0.43;;;11.60;99.90;;;;;;5014519;28;20242;-73
2023/04/11 12:46:10;;;;;;;0.50;0.50;;;11.60;99.90;;;;;;5015575;28;20198;-73
2023/04/11 12:48:36;;;;;;;0.70;0.70;;;11.60;99.90;;;;;;5014434;28;20661;-73
2023/04/11 12:51:01;;;;;;;0.47;0.47;;;11.60;99.90;;;;;;5013963;28;20199;-73
2023/04/11 12:53:36;;;;;;;0.77;0.77;;;11.50;99.90;;;;;;5015273;28;20257;-73
2023/04/11 12:56:02;;;;;;;0.50;0.50;;;11.30;99.90;;;;;;5015434;28;20573;-73
2023/04/11 12:58:28;;;;;;;0.50;0.50;;;11.30;99.90;;;;;;5014845;28;20198;-73